createdAt,value
2019-01-24T00:06:51.586Z,-3.02
2019-01-24T00:10:34.583Z,-3.12
2019-01-24T00:14:17.608Z,-3.09
2019-01-24T00:21:11.136Z,-3.08
2019-01-24T00:28:05.361Z,-3.20
2019-01-24T00:31:29.351Z,-3.14
2019-01-24T00:34:53.378Z,-3.16
2019-01-24T00:41:47.080Z,-3.14
2019-01-24T00:45:11.362Z,-3.06
2019-01-24T00:48:28.595Z,-3.20
2019-01-24T00:52:11.734Z,-3.21
2019-01-24T00:55:35.700Z,-3.23
2019-01-24T00:58:59.684Z,-3.06
2019-01-24T01:06:25.813Z,-3.08
2019-01-24T01:09:49.788Z,-3.16
2019-01-24T01:20:53.734Z,-3.24
2019-01-24T01:24:17.737Z,-2.99
2019-01-24T01:28:01.123Z,-3.12
2019-01-24T01:34:55.010Z,-3.07
2019-01-24T01:42:01.922Z,-3.06
2019-01-24T01:45:25.971Z,-3.09
2019-01-24T01:48:42.884Z,-3.05
2019-01-24T01:52:06.889Z,-3.02
2019-01-24T01:55:30.934Z,-2.92
2019-01-24T01:58:54.907Z,-2.91
2019-01-24T02:02:18.887Z,-3.02
2019-01-24T02:05:42.931Z,-3.02
2019-01-24T02:13:10.621Z,-3.09
2019-01-24T02:16:34.846Z,-3.10
2019-01-24T02:19:58.843Z,-3.13
2019-01-24T02:23:22.825Z,-3.17
2019-01-24T02:26:46.829Z,-3.12
2019-01-24T02:30:31.690Z,-3.00
2019-01-24T02:33:55.699Z,-3.22
2019-01-24T02:40:48.794Z,-3.14
2019-01-24T02:44:12.800Z,-3.15
2019-01-24T02:47:29.284Z,-3.25
2019-01-24T02:50:53.259Z,-3.24
2019-01-24T02:54:17.517Z,-3.32
2019-01-24T02:57:41.816Z,-3.34
2019-01-24T03:01:24.909Z,-3.15
2019-01-24T03:04:48.882Z,-3.26
2019-01-24T03:08:12.859Z,-3.16
2019-01-24T03:11:36.934Z,-3.12
2019-01-24T03:18:35.547Z,-3.16
2019-01-24T03:25:42.725Z,-3.20
2019-01-24T03:29:06.705Z,-3.20
2019-01-24T03:32:30.676Z,-3.19
2019-01-24T03:35:54.643Z,-3.08
2019-01-24T03:42:48.038Z,-3.13
2019-01-24T03:46:12.013Z,-3.18
2019-01-24T03:53:05.328Z,-3.25
2019-01-24T04:00:33.022Z,-3.26
2019-01-24T04:03:56.995Z,-3.20
2019-01-24T04:07:21.204Z,-3.25
2019-01-24T04:10:45.180Z,-3.14
2019-01-24T04:14:09.480Z,-3.13
2019-01-24T04:17:14.103Z,-3.15
2019-01-24T04:20:57.345Z,-3.22
2019-01-24T04:24:21.621Z,-3.23
2019-01-24T04:27:45.604Z,-3.16
2019-01-24T04:31:09.587Z,-3.20
2019-01-24T04:34:33.564Z,-3.27
2019-01-24T04:37:57.857Z,-3.08
2019-01-24T04:41:21.840Z,-3.17
2019-01-24T04:44:45.820Z,-3.18
2019-01-24T04:48:02.436Z,-3.18
2019-01-24T04:51:26.726Z,-3.30
2019-01-24T04:54:50.706Z,-3.31
2019-01-24T05:02:01.436Z,-3.09
2019-01-24T05:05:28.001Z,-3.11
2019-01-24T05:08:51.414Z,-3.21
2019-01-24T05:12:34.700Z,-3.30
2019-01-24T05:19:48.778Z,-3.22
2019-01-24T05:23:13.033Z,-3.23
2019-01-24T05:26:37.012Z,-3.14
2019-01-24T05:30:00.994Z,-3.25
2019-01-24T05:37:07.921Z,-3.40
2019-01-24T05:40:32.188Z,-3.31
2019-01-24T05:44:15.192Z,-3.37
2019-01-24T05:47:31.572Z,-3.22
2019-01-24T05:50:55.550Z,-3.30
2019-01-24T05:54:19.525Z,-3.24
2019-01-24T05:57:43.676Z,-3.22
2019-01-24T06:08:13.691Z,-3.14
2019-01-24T06:11:37.664Z,-3.21
2019-01-24T06:18:31.215Z,-3.18
2019-01-24T06:22:14.258Z,-3.13
2019-01-24T06:25:38.556Z,-3.15
2019-01-24T06:33:04.495Z,-3.13
2019-01-24T06:36:47.521Z,-3.03
2019-01-24T06:40:32.292Z,-3.05
2019-01-24T06:47:32.238Z,-3.03
2019-01-24T06:50:56.468Z,-3.06
2019-01-24T06:54:20.439Z,-3.21
2019-01-24T06:57:44.424Z,-3.16
2019-01-24T07:01:08.780Z,-3.18
2019-01-24T07:04:32.993Z,-3.05
2019-01-24T07:07:56.974Z,-3.06
2019-01-24T07:11:20.959Z,-3.07
2019-01-24T07:14:45.228Z,-3.02
2019-01-24T07:18:09.206Z,-2.86
2019-01-24T07:28:13.311Z,-2.94
2019-01-24T07:31:37.287Z,-2.99
2019-01-24T07:35:01.299Z,-2.96
2019-01-24T07:38:44.299Z,-2.82
2019-01-24T07:42:08.355Z,-2.71
2019-01-24T07:45:51.882Z,-2.71
2019-01-24T07:49:08.687Z,-2.63
2019-01-24T07:52:32.654Z,-2.54
2019-01-24T07:55:56.626Z,-2.50
2019-01-24T08:02:50.152Z,-2.45
2019-01-24T08:06:14.115Z,-2.41
2019-01-24T08:09:38.097Z,-2.49
2019-01-24T08:13:02.082Z,-2.44
2019-01-24T08:16:26.299Z,-2.50
2019-01-24T08:19:50.275Z,-2.48
2019-01-24T08:23:14.596Z,-2.33
2019-01-24T08:26:38.599Z,-2.32
2019-01-24T08:30:02.681Z,-2.32
2019-01-24T08:33:27.030Z,-2.26
2019-01-24T08:36:50.992Z,-2.11
2019-01-24T08:40:36.097Z,-2.08
2019-01-24T08:44:00.375Z,-1.90
2019-01-24T08:47:17.607Z,-1.78
2019-01-24T08:51:00.713Z,-1.81
2019-01-24T08:54:24.804Z,-1.71
2019-01-24T08:57:49.114Z,-1.35
2019-01-24T09:01:13.149Z,-1.38
2019-01-24T09:04:37.122Z,-1.56
2019-01-24T09:08:20.133Z,-1.49
2019-01-24T09:12:03.193Z,-1.25
2019-01-24T09:19:18.092Z,-0.73
2019-01-24T09:22:42.063Z,-0.69
2019-01-24T09:26:06.121Z,-0.88
2019-01-24T09:29:49.376Z,-0.93
2019-01-24T09:33:13.719Z,-0.83
2019-01-24T09:36:38.012Z,-0.51
2019-01-24T09:40:02.301Z,-0.26
2019-01-24T09:43:45.610Z,-0.11
2019-01-24T09:47:02.584Z,-0.21
2019-01-24T09:54:17.434Z,0.29
2019-01-24T09:57:41.404Z,0.03
2019-01-24T10:01:24.794Z,-0.88
2019-01-24T10:04:49.165Z,-1.01
2019-01-24T10:08:13.479Z,-1.41
2019-01-24T10:11:37.456Z,-1.65
2019-01-24T10:14:42.396Z,-1.72
2019-01-24T10:18:25.659Z,-1.32
2019-01-24T10:22:08.712Z,-1.31
2019-01-24T10:25:53.813Z,-1.77
2019-01-24T10:29:18.108Z,-1.95
2019-01-24T10:32:42.087Z,-1.88
2019-01-24T10:36:06.076Z,-1.50
2019-01-24T10:39:30.038Z,-0.63
2019-01-24T10:46:23.532Z,1.07
2019-01-24T10:49:40.003Z,1.05
2019-01-24T10:53:04.039Z,0.89
2019-01-24T10:56:28.051Z,1.35
2019-01-24T10:59:52.010Z,1.71
2019-01-24T11:03:16.045Z,1.57
2019-01-24T11:06:40.048Z,1.66
2019-01-24T11:20:53.375Z,1.65
2019-01-24T11:24:17.338Z,1.94
2019-01-24T11:27:41.300Z,2.06
2019-01-24T11:34:55.839Z,1.25
2019-01-24T11:38:19.882Z,1.23
2019-01-24T11:41:44.105Z,0.48
2019-01-24T11:45:29.180Z,-0.12
2019-01-24T11:48:44.109Z,-0.14
2019-01-24T11:52:08.188Z,-0.15
2019-01-24T11:55:32.206Z,0.06
2019-01-24T11:58:56.427Z,-0.06
2019-01-24T12:02:20.407Z,-0.17
2019-01-24T12:05:44.373Z,-0.28
2019-01-24T12:13:17.478Z,-0.68
2019-01-24T12:16:41.784Z,-0.31
2019-01-24T12:20:26.534Z,0.17
2019-01-24T12:23:50.498Z,0.45
2019-01-24T12:27:14.468Z,0.54
2019-01-24T12:30:38.460Z,0.59
2019-01-24T12:34:02.429Z,0.59
2019-01-24T12:37:26.389Z,0.29
2019-01-24T12:40:50.347Z,0.38
2019-01-24T12:44:33.460Z,0.41
2019-01-24T12:47:50.141Z,0.52
2019-01-24T12:50:54.794Z,0.55
2019-01-24T12:54:00.382Z,0.72
2019-01-24T12:57:24.453Z,0.96
2019-01-24T13:00:48.488Z,0.97
2019-01-24T13:07:42.325Z,0.59
2019-01-24T13:15:30.675Z,0.66
2019-01-24T13:18:54.635Z,0.43
2019-01-24T13:22:18.595Z,0.45
2019-01-24T13:25:42.580Z,0.61
2019-01-24T13:29:06.957Z,0.99
2019-01-24T13:32:30.911Z,1.13
2019-01-24T13:39:11.701Z,1.54
2019-01-24T13:42:54.938Z,1.54
2019-01-24T13:45:59.815Z,1.63
2019-01-24T13:49:16.938Z,1.49
2019-01-24T13:56:25.082Z,0.84
2019-01-24T13:59:29.683Z,0.64
2019-01-24T14:06:38.340Z,0.21
2019-01-24T14:10:21.626Z,-0.11
2019-01-24T14:13:45.865Z,-0.20
2019-01-24T14:17:10.179Z,-0.30
2019-01-24T14:20:34.221Z,-0.41
2019-01-24T14:24:10.860Z,-0.28
2019-01-24T14:27:24.693Z,-0.03
2019-01-24T14:30:48.964Z,0.09
2019-01-24T14:34:31.952Z,0.23
2019-01-24T14:37:56.172Z,0.21
2019-01-24T14:41:39.450Z,0.05
2019-01-24T14:48:47.232Z,0.11
2019-01-24T14:52:11.536Z,0.10
2019-01-24T14:55:35.816Z,0.15
2019-01-24T15:02:42.968Z,0.13
2019-01-24T15:06:07.029Z,0.17
2019-01-24T15:09:31.306Z,0.07
2019-01-24T15:12:55.340Z,0.06
2019-01-24T15:16:38.427Z,-0.12
2019-01-24T15:20:02.467Z,-0.08
2019-01-24T15:23:26.482Z,-0.16
2019-01-24T15:26:50.782Z,-0.17
2019-01-24T15:30:35.564Z,-0.17
2019-01-24T15:33:59.529Z,-0.18
2019-01-24T15:37:23.504Z,-0.30
2019-01-24T15:44:37.592Z,-0.46
2019-01-24T15:47:54.417Z,-0.53
2019-01-24T15:51:37.661Z,-0.57
2019-01-24T15:55:02.037Z,-0.73
2019-01-24T15:58:26.250Z,-0.74
2019-01-24T16:01:50.527Z,-0.77
2019-01-24T16:05:14.717Z,-0.78
2019-01-24T16:08:38.715Z,-0.85
2019-01-24T16:12:02.730Z,-0.92
2019-01-24T16:15:47.572Z,-0.91
2019-01-24T16:19:32.110Z,-0.95
2019-01-24T16:22:56.497Z,-0.79
2019-01-24T16:26:20.787Z,-0.97
2019-01-24T16:29:45.027Z,-0.95
2019-01-24T16:36:59.196Z,-1.11
2019-01-24T16:40:44.014Z,-0.94
2019-01-24T16:44:08.315Z,-0.93
2019-01-24T16:47:25.273Z,-1.02
2019-01-24T16:50:49.244Z,-1.16
2019-01-24T16:54:32.494Z,-1.21
2019-01-24T16:57:56.738Z,-1.25
2019-01-24T17:01:20.707Z,-1.26
2019-01-24T17:04:44.768Z,-1.36
2019-01-24T17:08:09.109Z,-1.27
2019-01-24T17:11:33.122Z,-1.32
2019-01-24T17:14:57.374Z,-1.35
2019-01-24T17:18:21.445Z,-1.41
2019-01-24T17:21:45.745Z,-1.56
2019-01-24T17:25:30.833Z,-1.56
2019-01-24T17:28:55.118Z,-1.53
2019-01-24T17:32:19.403Z,-1.50
2019-01-24T17:35:43.713Z,-1.61
2019-01-24T17:39:28.777Z,-1.59
2019-01-24T17:42:52.909Z,-1.51
2019-01-24T17:46:35.953Z,-1.61
2019-01-24T17:49:53.107Z,-1.64
2019-01-24T17:56:47.998Z,-1.56
2019-01-24T18:04:02.497Z,-1.70
2019-01-24T18:07:26.868Z,-1.98
2019-01-24T18:11:09.985Z,-2.16
2019-01-24T18:14:34.074Z,-2.20
2019-01-24T18:18:18.342Z,-2.22
2019-01-24T18:21:43.059Z,-2.25
2019-01-24T18:25:07.714Z,-2.25
2019-01-24T18:28:31.693Z,-2.30
2019-01-24T18:31:55.688Z,-2.31
2019-01-24T18:35:19.996Z,-2.38
2019-01-24T18:38:43.998Z,-2.38
2019-01-24T18:41:48.680Z,-2.42
2019-01-24T18:45:33.525Z,-2.46
2019-01-24T18:48:50.102Z,-2.48
2019-01-24T18:55:57.476Z,-2.42
2019-01-24T18:59:22.064Z,-2.46
2019-01-24T19:02:46.449Z,-2.54
2019-01-24T19:06:10.471Z,-2.57
2019-01-24T19:09:34.740Z,-2.58
2019-01-24T19:13:26.450Z,-2.62
2019-01-24T19:16:50.765Z,-2.65
2019-01-24T19:24:24.554Z,-2.72
2019-01-24T19:27:48.873Z,-2.74
2019-01-24T19:34:43.306Z,-2.76
2019-01-24T19:38:07.370Z,-2.78
2019-01-24T19:41:31.668Z,-2.82
2019-01-24T19:44:55.663Z,-2.81
2019-01-24T19:48:12.296Z,-2.84
2019-01-24T19:55:27.302Z,-2.83
2019-01-24T19:58:51.284Z,-2.84
2019-01-24T20:05:58.487Z,-2.84
2019-01-24T20:09:22.482Z,-2.87
2019-01-24T20:12:46.527Z,-2.91
2019-01-24T20:16:10.829Z,-2.91
2019-01-24T20:19:15.457Z,-2.88
2019-01-24T20:22:20.093Z,-2.82
2019-01-24T20:25:28.641Z,-2.81
2019-01-24T20:28:52.939Z,-2.82
2019-01-24T20:32:16.937Z,-2.83
2019-01-24T20:35:43.655Z,-2.80
2019-01-24T20:39:28.692Z,-2.85
2019-01-24T20:46:49.382Z,-2.95
2019-01-24T20:50:34.170Z,-2.90
2019-01-24T20:54:17.226Z,-2.88
2019-01-24T20:57:41.165Z,-2.77
2019-01-24T21:01:24.447Z,-2.83
2019-01-24T21:04:48.733Z,-2.87
2019-01-24T21:08:13.022Z,-2.84
2019-01-24T21:11:37.334Z,-2.86
2019-01-24T21:14:42.272Z,-2.94
2019-01-24T21:17:47.181Z,-3.01
2019-01-24T21:21:11.476Z,-3.01
2019-01-24T21:28:18.415Z,-2.89
2019-01-24T21:31:42.404Z,-2.87
2019-01-24T21:35:27.209Z,-2.96
2019-01-24T21:39:10.441Z,-3.01
2019-01-24T21:42:34.422Z,-3.04
2019-01-24T21:45:58.398Z,-3.14
2019-01-24T21:49:15.480Z,-3.08
2019-01-24T21:52:39.744Z,-3.16
2019-01-24T21:56:03.718Z,-3.20
2019-01-24T21:59:28.021Z,-3.38
2019-01-24T22:07:01.782Z,-3.68
2019-01-24T22:10:46.622Z,-3.78
2019-01-24T22:14:29.689Z,-3.86
2019-01-24T22:21:23.637Z,-3.89
2019-01-24T22:24:47.639Z,-3.88
2019-01-24T22:28:11.939Z,-3.91
2019-01-24T22:31:36.169Z,-3.84
2019-01-24T22:35:00.227Z,-3.87
2019-01-24T22:41:53.495Z,-3.65
2019-01-24T22:45:38.252Z,-3.58
2019-01-24T22:48:55.354Z,-3.51
2019-01-24T22:52:19.677Z,-3.53
2019-01-24T22:55:43.897Z,-3.61
2019-01-24T22:59:07.903Z,-3.59
2019-01-24T23:10:31.190Z,-3.69
2019-01-24T23:13:35.965Z,-3.72
2019-01-24T23:16:59.991Z,-3.77
2019-01-24T23:20:24.002Z,-3.77
2019-01-24T23:23:47.983Z,-3.76
2019-01-24T23:27:12.343Z,-3.82
2019-01-24T23:30:55.459Z,-3.77
2019-01-24T23:34:19.421Z,-3.79
2019-01-24T23:37:43.403Z,-3.82
2019-01-24T23:41:07.368Z,-3.93
2019-01-24T23:44:31.346Z,-3.84
2019-01-24T23:47:48.425Z,-3.98
2019-01-24T23:54:55.327Z,-3.88
2019-01-24T23:58:19.622Z,-3.78
